createdAt,value
2023-01-21T00:00:58.590Z,29.35
2023-01-21T00:03:26.972Z,29.17
2023-01-21T00:06:00.220Z,30.67
2023-01-21T00:08:27.375Z,29.55
2023-01-21T00:10:54.668Z,32.13
2023-01-21T00:13:21.885Z,29.90
2023-01-21T00:15:49.527Z,29.42
2023-01-21T00:18:17.842Z,30.08
2023-01-21T00:20:46.811Z,30.52
2023-01-21T00:23:13.681Z,28.58
2023-01-21T00:25:40.646Z,30.40
2023-01-21T00:28:08.458Z,29.70
2023-01-21T00:30:35.392Z,29.17
2023-01-21T00:33:02.170Z,29.55
2023-01-21T00:35:29.038Z,30.35
2023-01-21T00:37:57.220Z,30.48
2023-01-21T00:40:24.822Z,30.35
2023-01-21T00:42:51.816Z,29.30
2023-01-21T00:45:21.099Z,30.27
2023-01-21T00:47:48.060Z,30.65
2023-01-21T00:50:15.260Z,30.33
2023-01-21T00:52:42.606Z,30.88
2023-01-21T00:55:11.314Z,29.50
2023-01-21T00:57:38.307Z,29.92
2023-01-21T01:00:09.401Z,29.92
2023-01-21T01:02:36.287Z,32.08
2023-01-21T01:05:04.013Z,30.42
2023-01-21T01:07:30.871Z,30.52
2023-01-21T01:09:58.271Z,29.90
2023-01-21T01:12:28.825Z,30.73
2023-01-21T01:14:55.853Z,31.48
2023-01-21T01:17:22.875Z,31.80
2023-01-21T01:19:49.637Z,30.52
2023-01-21T01:22:17.159Z,30.88
2023-01-21T01:24:44.338Z,31.52
2023-01-21T01:27:11.326Z,30.42
2023-01-21T01:29:39.580Z,30.13
2023-01-21T01:32:06.360Z,29.90
2023-01-21T01:34:33.388Z,30.38
2023-01-21T01:37:00.435Z,28.83
2023-01-21T01:39:27.547Z,31.25
2023-01-21T01:41:54.395Z,32.35
2023-01-21T01:44:58.089Z,31.77
2023-01-21T01:47:30.636Z,32.03
2023-01-21T01:50:00.063Z,32.67
2023-01-21T01:52:28.116Z,33.63
2023-01-21T01:54:58.387Z,31.73
2023-01-21T01:57:32.379Z,23.10
2023-01-21T02:00:04.721Z,30.45
2023-01-21T02:02:32.966Z,29.05
2023-01-21T02:05:05.774Z,30.10
2023-01-21T02:07:37.105Z,30.13
2023-01-21T02:12:30.845Z,30.80
2023-01-21T02:14:58.248Z,32.58
2023-01-21T02:17:41.134Z,31.35
2023-01-21T02:20:49.448Z,32.20
2023-01-21T02:23:24.186Z,31.27
2023-01-21T02:26:19.071Z,29.67
2023-01-21T02:29:24.964Z,29.60
2023-01-21T02:32:12.291Z,31.23
2023-01-21T02:34:48.140Z,30.83
2023-01-21T02:37:22.070Z,30.13
2023-01-21T02:40:01.298Z,31.88
2023-01-21T02:42:40.108Z,30.58
2023-01-21T02:45:17.390Z,30.63
2023-01-21T02:47:49.835Z,30.48
2023-01-21T02:50:22.452Z,32.05
2023-01-21T02:52:55.763Z,31.83
2023-01-21T02:55:27.010Z,33.40
2023-01-21T02:57:56.793Z,30.45
2023-01-21T03:00:27.683Z,34.05
2023-01-21T03:03:17.859Z,31.83
2023-01-21T03:06:20.041Z,31.13
2023-01-21T03:08:54.071Z,32.28
2023-01-21T03:11:22.275Z,32.63
2023-01-21T03:13:58.029Z,32.25
2023-01-21T03:16:32.700Z,32.03
2023-01-21T03:19:04.344Z,34.15
2023-01-21T03:21:34.726Z,32.97
2023-01-21T03:24:03.996Z,33.30
2023-01-21T03:26:33.954Z,32.28
2023-01-21T03:29:09.157Z,33.65
2023-01-21T03:31:40.135Z,31.63
2023-01-21T03:34:11.655Z,31.13
2023-01-21T03:36:44.533Z,31.10
2023-01-21T03:39:17.590Z,31.85
2023-01-21T03:41:47.490Z,33.70
2023-01-21T03:44:14.451Z,33.90
2023-01-21T03:46:49.858Z,33.38
2023-01-21T03:49:22.987Z,34.10
2023-01-21T03:51:54.397Z,31.15
2023-01-21T03:54:22.977Z,32.33
2023-01-21T03:56:50.033Z,33.38
2023-01-21T03:59:16.988Z,31.80
2023-01-21T04:01:43.918Z,33.38
2023-01-21T04:04:10.923Z,33.60
2023-01-21T04:06:37.990Z,32.08
2023-01-21T04:09:05.269Z,33.95
2023-01-21T04:11:35.690Z,34.25
2023-01-21T04:14:02.551Z,32.45
2023-01-21T04:16:30.687Z,31.08
2023-01-21T04:18:57.552Z,33.40
2023-01-21T04:21:25.532Z,33.10
2023-01-21T04:23:52.265Z,33.83
2023-01-21T04:26:21.063Z,32.60
2023-01-21T04:28:50.989Z,32.22
2023-01-21T04:31:17.890Z,33.83
2023-01-21T04:33:44.957Z,32.20
2023-01-21T04:36:14.989Z,32.75
2023-01-21T04:38:42.188Z,32.77
2023-01-21T04:41:09.196Z,33.60
2023-01-21T04:43:36.450Z,33.45
2023-01-21T04:46:08.953Z,33.55
2023-01-21T04:48:37.505Z,33.22
2023-01-21T04:51:07.159Z,33.72
2023-01-21T04:53:34.375Z,35.03
2023-01-21T04:56:03.895Z,34.85
2023-01-21T04:58:32.519Z,33.55
2023-01-21T05:00:59.571Z,34.28
2023-01-21T05:03:30.128Z,35.60
2023-01-21T05:05:59.400Z,35.03
2023-01-21T05:08:26.431Z,34.47
2023-01-21T05:10:53.216Z,34.10
2023-01-21T05:13:20.385Z,34.28
2023-01-21T05:15:47.734Z,33.47
2023-01-21T05:18:17.223Z,36.00
2023-01-21T05:20:45.603Z,33.55
2023-01-21T05:23:12.471Z,37.67
2023-01-21T05:25:40.522Z,36.38
2023-01-21T05:28:07.434Z,35.15
2023-01-21T05:30:34.453Z,35.13
2023-01-21T05:33:04.186Z,35.40
2023-01-21T05:35:33.396Z,37.03
2023-01-21T05:38:01.507Z,35.40
2023-01-21T05:40:28.554Z,34.95
2023-01-21T05:42:55.388Z,36.38
2023-01-21T05:45:22.953Z,36.20
2023-01-21T05:47:49.916Z,37.80
2023-01-21T05:50:17.381Z,37.05
2023-01-21T05:52:44.499Z,36.38
2023-01-21T05:55:12.716Z,38.22
2023-01-21T05:57:42.380Z,37.85
2023-01-21T06:00:10.430Z,34.97
2023-01-21T06:02:37.750Z,38.47
2023-01-21T06:05:06.147Z,37.50
2023-01-21T06:07:33.019Z,37.08
2023-01-21T06:10:00.279Z,38.00
2023-01-21T06:12:35.604Z,36.83
2023-01-21T06:15:02.609Z,38.58
2023-01-21T06:17:32.081Z,37.67
2023-01-21T06:19:59.448Z,37.47
2023-01-21T06:22:26.468Z,37.45
2023-01-21T06:24:53.436Z,37.65
2023-01-21T06:27:20.636Z,37.80
2023-01-21T06:29:49.679Z,36.92
2023-01-21T06:32:18.260Z,37.22
2023-01-21T06:34:46.786Z,35.28
2023-01-21T06:37:15.565Z,35.70
2023-01-21T06:39:46.752Z,35.97
2023-01-21T06:44:52.126Z,35.78
2023-01-21T06:47:18.870Z,35.22
2023-01-21T06:49:48.169Z,37.47
2023-01-21T06:52:15.066Z,35.92
2023-01-21T06:54:43.616Z,36.78
2023-01-21T06:57:25.593Z,36.10
2023-01-21T06:59:53.910Z,36.10
2023-01-21T07:02:23.218Z,34.65
2023-01-21T07:04:50.212Z,35.97
2023-01-21T07:07:22.241Z,36.03
2023-01-21T07:10:39.500Z,36.15
2023-01-21T07:13:06.836Z,34.75
2023-01-21T07:15:45.302Z,38.50
2023-01-21T07:18:15.572Z,36.03
2023-01-21T07:20:42.492Z,36.70
2023-01-21T07:23:09.515Z,38.92
2023-01-21T07:25:36.358Z,37.08
2023-01-21T07:28:03.702Z,36.80
2023-01-21T07:30:30.798Z,35.65
2023-01-21T07:33:05.333Z,36.55
2023-01-21T07:35:32.299Z,38.63
2023-01-21T07:37:59.362Z,36.10
2023-01-21T07:40:30.845Z,35.38
2023-01-21T07:42:57.757Z,34.05
2023-01-21T07:45:26.178Z,35.58
2023-01-21T07:47:53.767Z,37.65
2023-01-21T07:50:21.905Z,36.75
2023-01-21T07:52:48.675Z,36.30
2023-01-21T07:55:15.862Z,37.38
2023-01-21T07:57:43.187Z,35.05
2023-01-21T08:00:11.358Z,36.90
2023-01-21T08:02:38.421Z,36.15
2023-01-21T08:05:06.040Z,37.75
2023-01-21T08:07:34.834Z,37.70
2023-01-21T08:10:05.584Z,35.58
2023-01-21T08:12:32.754Z,33.15
2023-01-21T08:14:59.978Z,34.47
2023-01-21T08:17:27.093Z,35.30
2023-01-21T08:19:54.011Z,34.63
2023-01-21T08:22:22.155Z,35.95
2023-01-21T08:24:50.329Z,35.30
2023-01-21T08:27:19.761Z,36.13
2023-01-21T08:29:46.554Z,36.33
2023-01-21T08:32:13.542Z,38.30
2023-01-21T08:34:40.317Z,36.30
2023-01-21T08:37:08.924Z,35.72
2023-01-21T08:39:35.711Z,37.00
2023-01-21T08:42:05.088Z,37.45
2023-01-21T08:44:32.826Z,37.70
2023-01-21T08:46:59.784Z,37.97
2023-01-21T08:49:32.228Z,39.17
2023-01-21T08:51:59.416Z,43.10
2023-01-21T08:54:26.185Z,43.97
2023-01-21T08:56:52.921Z,43.80
2023-01-21T08:59:21.207Z,44.67
2023-01-21T09:01:48.256Z,59.92
2023-01-21T09:07:34.273Z,46.13
2023-01-21T09:10:03.483Z,44.85
2023-01-21T09:12:31.932Z,49.10
2023-01-21T09:15:04.324Z,47.17
2023-01-21T09:17:31.196Z,48.88
2023-01-21T09:20:00.431Z,49.47
2023-01-21T09:22:30.116Z,50.13
2023-01-21T09:25:04.509Z,49.67
2023-01-21T09:27:31.538Z,50.10
2023-01-21T09:30:00.650Z,48.10
2023-01-21T09:32:33.723Z,48.08
2023-01-21T09:35:01.059Z,48.33
2023-01-21T09:37:27.944Z,47.65
2023-01-21T09:39:58.084Z,48.78
2023-01-21T09:42:35.642Z,50.90
2023-01-21T09:45:05.141Z,46.75
2023-01-21T09:47:40.665Z,45.90
2023-01-21T09:52:59.861Z,47.78
2023-01-21T09:55:32.340Z,47.00
2023-01-21T09:58:32.548Z,47.58
2023-01-21T10:01:12.795Z,44.67
2023-01-21T10:03:48.481Z,45.95
2023-01-21T10:06:33.303Z,48.35
2023-01-21T10:09:47.861Z,46.88
2023-01-21T10:12:27.025Z,45.20
2023-01-21T10:15:27.255Z,45.00
2023-01-21T10:18:03.619Z,41.28
2023-01-21T10:20:33.697Z,45.03
2023-01-21T10:23:06.092Z,44.65
2023-01-21T10:25:35.294Z,45.75
2023-01-21T10:28:10.128Z,44.28
2023-01-21T10:30:40.262Z,42.97
2023-01-21T10:33:20.788Z,41.97
2023-01-21T10:36:04.345Z,43.17
2023-01-21T10:38:48.156Z,39.65
2023-01-21T10:41:36.930Z,41.78
2023-01-21T10:44:14.706Z,40.28
2023-01-21T10:46:49.699Z,42.60
2023-01-21T10:49:41.125Z,40.53
2023-01-21T10:54:50.539Z,40.22
2023-01-21T10:57:35.292Z,39.95
2023-01-21T11:00:04.615Z,38.63
2023-01-21T11:02:33.294Z,35.95
2023-01-21T11:05:04.921Z,35.15
2023-01-21T11:07:35.488Z,34.63
2023-01-21T11:10:04.036Z,25.52
2023-01-21T11:12:31.003Z,34.33
2023-01-21T11:14:59.459Z,35.00
2023-01-21T11:17:34.109Z,32.15
2023-01-21T11:20:07.004Z,32.13
2023-01-21T11:22:51.853Z,31.23
2023-01-21T11:25:26.499Z,31.05
2023-01-21T11:27:53.614Z,31.88
2023-01-21T11:30:52.026Z,32.83
2023-01-21T11:33:24.650Z,31.60
2023-01-21T11:35:54.480Z,31.48
2023-01-21T11:38:31.468Z,27.13
2023-01-21T11:41:03.829Z,27.60
2023-01-21T11:43:39.850Z,26.63
2023-01-21T11:46:28.828Z,22.67
2023-01-21T11:48:57.988Z,22.15
2023-01-21T11:51:26.699Z,22.73
2023-01-21T11:54:08.460Z,22.05
2023-01-21T11:56:36.828Z,22.25
2023-01-21T11:59:21.337Z,21.55
2023-01-21T12:01:53.417Z,22.00
2023-01-21T12:04:20.292Z,20.90
2023-01-21T12:06:48.935Z,22.17
2023-01-21T12:09:18.740Z,20.75
2023-01-21T12:11:50.017Z,20.25
2023-01-21T12:14:26.189Z,19.65
2023-01-21T12:17:04.136Z,19.27
2023-01-21T12:19:51.608Z,16.63
2023-01-21T12:22:36.015Z,15.27
2023-01-21T12:25:22.225Z,14.63
2023-01-21T12:28:05.932Z,16.58
2023-01-21T12:30:41.073Z,14.88
2023-01-21T12:33:15.667Z,15.07
2023-01-21T12:35:49.397Z,14.32
2023-01-21T12:38:21.647Z,13.85
2023-01-21T12:40:55.134Z,13.25
2023-01-21T12:43:26.184Z,12.63
2023-01-21T12:45:57.112Z,10.80
2023-01-21T12:48:29.543Z,12.60
2023-01-21T12:51:02.580Z,10.85
2023-01-21T12:53:41.115Z,11.57
2023-01-21T12:56:27.285Z,11.13
2023-01-21T12:59:00.096Z,11.80
2023-01-21T13:01:48.564Z,12.55
2023-01-21T13:04:32.791Z,11.07
2023-01-21T13:07:05.558Z,10.98
2023-01-21T13:09:43.064Z,10.90
2023-01-21T13:12:15.985Z,10.88
2023-01-21T13:14:48.275Z,10.63
2023-01-21T13:17:19.753Z,11.35
2023-01-21T13:22:25.387Z,11.45
2023-01-21T13:25:04.869Z,10.55
2023-01-21T13:27:41.181Z,11.70
2023-01-21T13:30:21.377Z,11.98
2023-01-21T13:32:56.757Z,11.63
2023-01-21T13:35:33.972Z,12.00
2023-01-21T13:38:13.041Z,12.27
2023-01-21T13:40:51.405Z,11.88
2023-01-21T13:43:34.000Z,12.05
2023-01-21T13:46:17.015Z,10.18
2023-01-21T13:48:59.895Z,9.43
2023-01-21T13:51:36.134Z,9.68
2023-01-21T13:54:25.533Z,9.50
2023-01-21T13:57:07.773Z,8.88
2023-01-21T13:59:40.248Z,10.05
2023-01-21T14:02:13.934Z,9.15
2023-01-21T14:04:47.216Z,9.00
2023-01-21T14:07:23.288Z,9.48
2023-01-21T14:09:55.965Z,9.73
2023-01-21T14:12:38.560Z,9.90
2023-01-21T14:15:28.968Z,10.38
2023-01-21T14:18:24.686Z,9.48
2023-01-21T14:21:12.759Z,9.52
2023-01-21T14:24:18.388Z,8.90
2023-01-21T14:27:13.707Z,9.00
2023-01-21T14:29:47.777Z,10.50
2023-01-21T14:32:24.083Z,8.18
2023-01-21T14:35:03.701Z,6.70
2023-01-21T14:37:34.868Z,4.88
2023-01-21T14:40:12.883Z,3.67
2023-01-21T14:42:41.915Z,4.03
2023-01-21T14:45:11.775Z,4.10
2023-01-21T14:47:44.653Z,4.47
2023-01-21T14:50:11.776Z,4.93
2023-01-21T14:52:44.225Z,5.20
2023-01-21T14:55:32.881Z,5.35
2023-01-21T14:58:01.201Z,14.27
2023-01-21T15:00:34.579Z,39.58
2023-01-21T15:03:14.751Z,7.53
2023-01-21T15:05:44.629Z,18.52
2023-01-21T15:08:21.911Z,6.30
2023-01-21T15:10:52.394Z,6.30
2023-01-21T15:13:30.762Z,5.10
2023-01-21T15:16:14.644Z,6.80
2023-01-21T15:18:44.062Z,5.75
2023-01-21T15:21:37.210Z,5.90
2023-01-21T15:24:28.885Z,5.72
2023-01-21T15:27:17.219Z,5.57
2023-01-21T15:29:45.865Z,6.75
2023-01-21T15:32:22.371Z,7.03
2023-01-21T15:34:52.102Z,7.47
2023-01-21T15:37:22.627Z,29.42
2023-01-21T15:39:50.226Z,16.15
2023-01-21T15:42:27.127Z,8.55
2023-01-21T15:45:13.802Z,11.48
2023-01-21T15:48:04.954Z,9.07
2023-01-21T15:50:39.453Z,8.15
2023-01-21T15:53:21.584Z,8.32
2023-01-21T15:56:11.530Z,7.68
2023-01-21T15:58:51.273Z,7.70
2023-01-21T16:01:30.891Z,7.10
2023-01-21T16:04:29.027Z,7.28
2023-01-21T16:07:14.512Z,7.13
2023-01-21T16:09:57.942Z,7.65
2023-01-21T16:12:34.621Z,7.00
2023-01-21T16:15:15.517Z,8.50
2023-01-21T16:18:01.488Z,7.97
2023-01-21T16:20:32.422Z,8.75
2023-01-21T16:23:03.605Z,7.95
2023-01-21T16:25:30.700Z,10.63
2023-01-21T16:27:57.605Z,14.93
2023-01-21T16:30:28.234Z,16.55
2023-01-21T16:33:10.759Z,13.25
2023-01-21T16:35:50.790Z,12.90
2023-01-21T16:38:20.146Z,12.35
2023-01-21T16:40:49.413Z,12.82
2023-01-21T16:43:24.264Z,12.93
2023-01-21T16:45:58.129Z,15.98
2023-01-21T16:48:28.064Z,16.77
2023-01-21T16:50:56.869Z,16.92
2023-01-21T16:53:33.636Z,19.17
2023-01-21T16:56:16.563Z,19.63
2023-01-21T16:58:53.633Z,20.45
2023-01-21T17:01:26.824Z,21.27
2023-01-21T17:03:56.963Z,20.85
2023-01-21T17:06:29.207Z,23.88
2023-01-21T17:09:00.494Z,25.45
2023-01-21T17:13:54.574Z,27.48
2023-01-21T17:16:27.657Z,25.80
2023-01-21T17:18:57.959Z,23.90
2023-01-21T17:21:35.508Z,20.65
2023-01-21T17:24:05.691Z,23.75
2023-01-21T17:26:37.036Z,22.63
2023-01-21T17:29:18.521Z,26.85
2023-01-21T17:31:54.119Z,22.25
2023-01-21T17:34:22.779Z,23.73
2023-01-21T17:36:52.940Z,23.40
2023-01-21T17:39:56.282Z,19.88
2023-01-21T17:42:26.007Z,16.98
2023-01-21T17:44:56.106Z,29.65
2023-01-21T17:47:30.470Z,20.70
2023-01-21T17:50:00.346Z,23.00
2023-01-21T17:52:29.813Z,23.55
2023-01-21T17:55:12.732Z,20.30
2023-01-21T17:57:41.015Z,20.80
2023-01-21T18:00:34.380Z,21.95
2023-01-21T18:03:02.260Z,21.30
2023-01-21T18:05:29.455Z,22.92
2023-01-21T18:08:02.616Z,22.02
2023-01-21T18:10:30.384Z,21.42
2023-01-21T18:13:02.950Z,21.42
2023-01-21T18:15:32.044Z,21.48
2023-01-21T18:18:01.542Z,21.30
2023-01-21T18:20:33.216Z,20.35
2023-01-21T18:23:01.703Z,21.73
2023-01-21T18:25:31.103Z,20.40
2023-01-21T18:27:58.357Z,21.27
2023-01-21T18:30:26.975Z,20.00
2023-01-21T18:32:56.577Z,20.10
2023-01-21T18:35:27.389Z,20.98
2023-01-21T18:40:41.449Z,21.40
2023-01-21T18:43:13.703Z,21.75
2023-01-21T18:45:40.641Z,21.13
2023-01-21T18:48:11.368Z,24.42
2023-01-21T18:50:38.243Z,24.52
2023-01-21T18:53:05.167Z,23.95
2023-01-21T18:55:34.145Z,24.27
2023-01-21T18:58:02.293Z,26.90
2023-01-21T19:00:31.084Z,25.20
2023-01-21T19:02:59.652Z,26.88
2023-01-21T19:05:30.464Z,27.60
2023-01-21T19:07:57.485Z,28.48
2023-01-21T19:10:27.004Z,27.27
2023-01-21T19:12:55.372Z,25.98
2023-01-21T19:15:24.670Z,30.10
2023-01-21T19:17:52.548Z,25.70
2023-01-21T19:20:21.752Z,25.70
2023-01-21T19:22:50.210Z,26.77
2023-01-21T19:25:20.651Z,25.83
2023-01-21T19:27:50.262Z,27.85
2023-01-21T19:30:32.498Z,29.13
2023-01-21T19:33:00.250Z,30.55
2023-01-21T19:35:30.763Z,29.98
2023-01-21T19:37:58.017Z,28.05
2023-01-21T19:40:27.205Z,25.13
2023-01-21T19:42:54.332Z,23.95
2023-01-21T19:45:24.505Z,21.45
2023-01-21T19:47:51.848Z,21.10
2023-01-21T19:50:21.019Z,22.30
2023-01-21T19:52:49.909Z,20.35
2023-01-21T19:55:18.559Z,22.90
2023-01-21T19:57:46.882Z,20.45
2023-01-21T20:00:21.007Z,22.23
2023-01-21T20:02:49.318Z,21.98
2023-01-21T20:05:16.920Z,23.13
2023-01-21T20:07:45.054Z,23.23
2023-01-21T20:10:13.979Z,21.98
2023-01-21T20:12:42.689Z,20.40
2023-01-21T20:15:10.674Z,20.92
2023-01-21T20:17:38.727Z,20.90
2023-01-21T20:20:18.451Z,19.60
2023-01-21T20:22:45.292Z,20.38
2023-01-21T20:25:16.663Z,17.50
2023-01-21T20:27:46.464Z,17.30
2023-01-21T20:30:17.696Z,16.00
2023-01-21T20:35:13.745Z,15.55
2023-01-21T20:37:42.545Z,18.27
2023-01-21T20:40:15.845Z,15.63
2023-01-21T20:42:43.092Z,14.70
2023-01-21T20:45:12.391Z,15.25
2023-01-21T20:47:49.585Z,14.57
2023-01-21T20:50:20.319Z,12.65
2023-01-21T20:52:49.284Z,14.07
2023-01-21T20:55:20.951Z,15.30
2023-01-21T20:57:48.230Z,16.70
2023-01-21T21:00:17.635Z,11.93
2023-01-21T21:02:45.030Z,10.63
2023-01-21T21:05:12.521Z,10.65
2023-01-21T21:07:39.423Z,11.57
2023-01-21T21:10:17.988Z,10.30
2023-01-21T21:12:45.531Z,10.18
2023-01-21T21:15:13.673Z,10.63
2023-01-21T21:17:40.571Z,10.82
2023-01-21T21:20:16.100Z,11.20
2023-01-21T21:22:43.116Z,12.57
2023-01-21T21:25:14.801Z,13.82
2023-01-21T21:27:43.328Z,12.55
2023-01-21T21:30:14.490Z,12.02
2023-01-21T21:32:41.973Z,12.25
2023-01-21T21:35:27.669Z,11.38
2023-01-21T21:37:58.723Z,11.63
2023-01-21T21:40:27.942Z,11.57
2023-01-21T21:42:55.993Z,12.68
2023-01-21T21:45:22.843Z,11.38
2023-01-21T21:47:50.024Z,12.05
2023-01-21T21:50:16.862Z,12.30
2023-01-21T21:52:43.584Z,14.18
2023-01-21T21:55:10.922Z,12.85
2023-01-21T21:57:39.062Z,11.63
2023-01-21T22:00:07.340Z,13.43
2023-01-21T22:02:34.161Z,11.48
2023-01-21T22:05:01.201Z,11.55
2023-01-21T22:07:28.021Z,11.38
2023-01-21T22:09:55.248Z,12.27
2023-01-21T22:12:22.233Z,11.90
2023-01-21T22:14:50.423Z,11.88
2023-01-21T22:17:17.205Z,11.68
2023-01-21T22:19:44.014Z,11.85
2023-01-21T22:22:10.981Z,11.55
2023-01-21T22:24:37.681Z,11.40
2023-01-21T22:27:04.402Z,11.73
2023-01-21T22:29:32.194Z,11.40
2023-01-21T22:32:00.674Z,10.98
2023-01-21T22:34:27.422Z,11.90
2023-01-21T22:36:54.120Z,11.57
2023-01-21T22:39:21.156Z,10.52
2023-01-21T22:41:48.137Z,10.27
2023-01-21T22:44:15.357Z,9.77
2023-01-21T22:46:42.317Z,10.18
2023-01-21T22:49:12.623Z,10.80
2023-01-21T22:51:48.745Z,10.37
2023-01-21T22:54:15.601Z,10.57
2023-01-21T22:56:51.990Z,10.95
2023-01-21T22:59:20.189Z,10.40
2023-01-21T23:01:46.953Z,10.48
2023-01-21T23:04:15.394Z,9.40
2023-01-21T23:06:42.434Z,9.63
2023-01-21T23:09:11.542Z,10.07
2023-01-21T23:11:38.901Z,10.48
2023-01-21T23:14:07.311Z,9.90
2023-01-21T23:16:34.502Z,10.40
2023-01-21T23:19:01.354Z,10.13
2023-01-21T23:21:29.717Z,9.88
2023-01-21T23:23:56.709Z,10.70
2023-01-21T23:26:23.505Z,10.95
2023-01-21T23:28:54.042Z,11.18
2023-01-21T23:31:21.100Z,7.68
2023-01-21T23:33:49.810Z,10.80
2023-01-21T23:36:17.362Z,10.88
2023-01-21T23:38:45.810Z,10.02
2023-01-21T23:41:14.523Z,11.05
2023-01-21T23:43:41.445Z,10.52
2023-01-21T23:46:11.490Z,10.43
2023-01-21T23:48:39.089Z,10.27
2023-01-21T23:51:09.363Z,10.05
2023-01-21T23:53:36.137Z,11.30
2023-01-21T23:56:06.407Z,10.60
2023-01-21T23:58:34.488Z,10.57
